Time;durP1;ratioP1;P1;durP2;ratioP2;P2;SDS_P1;SDS_P2;PMS_P1;PMS_P2;Temp;Humidity;BMP_temperature;BMP_pressure;BME280_temperature;BME280_humidity;BME280_pressure;Samples;Min_cycle;Max_cycle;Signal;HPM_P1;HPM_P2
2024/01/26 00:00:14;;;;;;;13.07;6.73;;;;;;;;;;5046227;28;20221;-34
2024/01/26 00:02:41;;;;;;;10.00;6.00;;;;;;;;;;5039692;28;20214;-33
2024/01/26 00:05:09;;;;;;;11.00;6.57;;;;;;;;;;5046237;28;20206;-35
2024/01/26 00:07:39;;;;;;;9.67;5.57;;;;;;;;;;5036663;28;20281;-35
2024/01/26 00:10:09;;;;;;;10.60;6.07;;;;;;;;;;5038084;28;20222;-37
2024/01/26 00:12:39;;;;;;;8.73;5.33;;;;;;;;;;5039019;28;20298;-37
2024/01/26 00:15:07;;;;;;;12.47;6.43;;;;;;;;;;5042006;28;20205;-36
2024/01/26 00:17:34;;;;;;;8.97;6.33;;;;;;;;;;5045590;28;20317;-37
2024/01/26 00:20:01;;;;;;;11.60;6.07;;;;;;;;;;5030320;28;20269;-35
2024/01/26 00:22:29;;;;;;;11.37;6.77;;;;;;;;;;5048174;28;20206;-34
2024/01/26 00:24:56;;;;;;;11.57;6.27;;;;;;;;;;5041329;28;20202;-36
2024/01/26 00:27:24;;;;;;;11.17;5.80;;;;;;;;;;5046150;28;20240;-35
2024/01/26 00:29:51;;;;;;;12.17;7.20;;;;;;;;;;5042270;28;20226;-38
2024/01/26 00:32:19;;;;;;;13.00;6.50;;;;;;;;;;5048399;28;20257;-36
2024/01/26 00:34:46;;;;;;;10.90;6.70;;;;;;;;;;5047166;28;20201;-37
2024/01/26 00:37:13;;;;;;;8.87;5.60;;;;;;;;;;5052045;28;20229;-32
2024/01/26 00:39:44;;;;;;;12.93;6.70;;;;;;;;;;5036903;28;20218;-37
2024/01/26 00:42:11;;;;;;;9.70;6.07;;;;;;;;;;5042586;28;20217;-33
2024/01/26 00:44:41;;;;;;;13.53;6.70;;;;;;;;;;5037705;28;20300;-34
2024/01/26 00:47:08;;;;;;;12.33;6.47;;;;;;;;;;5036900;28;20657;-35
2024/01/26 00:49:36;;;;;;;11.27;7.13;;;;;;;;;;5031077;28;20230;-31
2024/01/26 00:52:03;;;;;;;10.00;6.10;;;;;;;;;;5039891;28;20205;-32
2024/01/26 00:54:31;;;;;;;10.60;6.67;;;;;;;;;;5029389;28;20206;-36
2024/01/26 00:57:01;;;;;;;9.07;6.57;;;;;;;;;;5030492;28;20207;-37
2024/01/26 00:59:29;;;;;;;9.00;5.93;;;;;;;;;;5036307;28;20225;-32
2024/01/26 01:01:57;;;;;;;7.27;5.53;;;;;;;;;;5043301;28;20305;-37
2024/01/26 01:04:24;;;;;;;10.60;6.20;;;;;;;;;;5032317;28;20639;-36
2024/01/26 01:06:54;;;;;;;13.77;5.73;;;;;;;;;;5032223;28;20298;-37
2024/01/26 01:09:21;;;;;;;10.03;5.23;;;;;;;;;;5036401;28;20296;-33
2024/01/26 01:11:48;;;;;;;7.17;5.40;;;;;;;;;;5042302;28;20206;-33
2024/01/26 01:14:18;;;;;;;6.40;5.07;;;;;;;;;;5044758;28;20198;-37
2024/01/26 01:16:48;;;;;;;8.33;5.00;;;;;;;;;;5042415;28;20213;-37
2024/01/26 01:19:16;;;;;;;6.23;5.23;;;;;;;;;;5046899;28;20225;-37
2024/01/26 01:21:43;;;;;;;11.17;6.30;;;;;;;;;;5037176;28;20289;-37
2024/01/26 01:24:13;;;;;;;6.97;4.87;;;;;;;;;;5032940;28;20212;-31
2024/01/26 01:26:41;;;;;;;13.50;6.77;;;;;;;;;;5048716;28;20238;-32
2024/01/26 01:29:08;;;;;;;11.27;6.17;;;;;;;;;;5042722;28;20202;-33
2024/01/26 01:31:35;;;;;;;5.10;4.50;;;;;;;;;;5051450;28;20210;-35
2024/01/26 01:34:04;;;;;;;4.47;3.90;;;;;;;;;;5043854;28;20199;-36
2024/01/26 01:36:34;;;;;;;7.03;4.13;;;;;;;;;;5033655;28;20256;-32
2024/01/26 01:39:02;;;;;;;8.07;5.30;;;;;;;;;;5039549;28;20236;-35
2024/01/26 01:41:29;;;;;;;5.40;3.67;;;;;;;;;;5039861;28;20222;-34
2024/01/26 01:43:56;;;;;;;4.23;3.30;;;;;;;;;;5032276;28;20302;-37
2024/01/26 01:46:24;;;;;;;3.97;3.50;;;;;;;;;;5040579;28;20276;-35
2024/01/26 01:48:54;;;;;;;6.67;3.30;;;;;;;;;;5029899;28;20206;-35
2024/01/26 01:51:22;;;;;;;4.33;3.53;;;;;;;;;;5040517;28;20226;-35
2024/01/26 01:53:50;;;;;;;4.17;3.17;;;;;;;;;;5042504;28;20202;-37
2024/01/26 01:56:20;;;;;;;4.90;3.00;;;;;;;;;;5045614;28;20293;-35
2024/01/26 01:58:47;;;;;;;3.53;3.23;;;;;;;;;;5031906;28;20308;-37
2024/01/26 02:01:18;;;;;;;4.40;3.37;;;;;;;;;;5035515;28;20225;-33
2024/01/26 02:03:46;;;;;;;4.23;3.23;;;;;;;;;;5047417;28;20222;-34
2024/01/26 02:06:15;;;;;;;5.07;3.37;;;;;;;;;;5039859;28;20199;-34
2024/01/26 02:08:42;;;;;;;2.87;2.60;;;;;;;;;;5034237;28;20217;-33
2024/01/26 02:11:11;;;;;;;3.90;2.90;;;;;;;;;;5045299;28;20218;-35
2024/01/26 02:13:38;;;;;;;4.77;2.87;;;;;;;;;;5048545;28;20217;-37
2024/01/26 02:16:06;;;;;;;3.00;2.30;;;;;;;;;;5038983;28;20203;-31
2024/01/26 02:18:34;;;;;;;3.53;2.60;;;;;;;;;;5031693;28;20229;-35
2024/01/26 02:21:02;;;;;;;2.43;2.23;;;;;;;;;;5045564;28;20232;-38
2024/01/26 02:23:30;;;;;;;2.07;1.90;;;;;;;;;;5049822;28;20244;-34
2024/01/26 02:25:58;;;;;;;2.40;2.20;;;;;;;;;;5032245;28;20198;-36
2024/01/26 02:28:25;;;;;;;3.63;2.17;;;;;;;;;;5039033;28;20202;-35
2024/01/26 02:30:52;;;;;;;2.30;2.10;;;;;;;;;;5043323;28;20236;-36
2024/01/26 02:33:22;;;;;;;2.17;1.97;;;;;;;;;;5045700;28;20202;-36
2024/01/26 02:35:50;;;;;;;2.20;2.00;;;;;;;;;;5044021;28;20208;-36
2024/01/26 02:38:17;;;;;;;2.23;2.03;;;;;;;;;;5050725;28;20285;-38
2024/01/26 02:40:45;;;;;;;1.97;1.70;;;;;;;;;;5038910;28;20222;-34
2024/01/26 02:43:13;;;;;;;2.13;1.97;;;;;;;;;;5038725;28;20206;-33
2024/01/26 02:45:43;;;;;;;2.77;2.23;;;;;;;;;;5040744;28;20253;-38
2024/01/26 02:48:10;;;;;;;2.80;2.20;;;;;;;;;;5041398;28;20210;-37
2024/01/26 02:50:38;;;;;;;4.67;2.50;;;;;;;;;;5039212;28;20233;-36
2024/01/26 02:53:05;;;;;;;2.63;2.30;;;;;;;;;;5037278;28;20218;-35
2024/01/26 02:55:32;;;;;;;2.63;2.03;;;;;;;;;;5031323;28;20202;-34
2024/01/26 02:58:01;;;;;;;2.13;1.87;;;;;;;;;;5036376;28;20221;-36
2024/01/26 03:00:28;;;;;;;1.87;1.70;;;;;;;;;;5040206;28;20313;-37
2024/01/26 03:02:58;;;;;;;1.73;1.63;;;;;;;;;;5048338;28;20224;-37
2024/01/26 03:05:25;;;;;;;2.17;1.80;;;;;;;;;;5042311;28;20210;-37
2024/01/26 03:07:52;;;;;;;3.23;2.30;;;;;;;;;;5043797;28;20206;-36
2024/01/26 03:10:19;;;;;;;4.20;2.47;;;;;;;;;;5037524;28;20254;-36
2024/01/26 03:12:47;;;;;;;2.90;2.17;;;;;;;;;;5048638;28;20210;-36
2024/01/26 03:15:16;;;;;;;1.73;1.53;;;;;;;;;;5051123;28;20202;-34
2024/01/26 03:17:43;;;;;;;2.27;2.00;;;;;;;;;;5035149;28;20240;-36
2024/01/26 03:20:10;;;;;;;2.47;2.10;;;;;;;;;;5047534;28;20272;-33
2024/01/26 03:22:38;;;;;;;2.13;1.93;;;;;;;;;;5049557;28;20206;-37
2024/01/26 03:25:06;;;;;;;2.10;1.80;;;;;;;;;;5033494;28;20288;-34
2024/01/26 03:27:33;;;;;;;1.80;1.70;;;;;;;;;;5033633;28;20229;-35
2024/01/26 03:30:00;;;;;;;2.73;2.03;;;;;;;;;;5037098;28;20224;-36
2024/01/26 03:32:29;;;;;;;1.83;1.73;;;;;;;;;;5032261;28;20210;-38
2024/01/26 03:34:56;;;;;;;2.23;1.80;;;;;;;;;;5036877;28;20203;-33
2024/01/26 03:37:23;;;;;;;2.13;1.93;;;;;;;;;;5038151;28;20220;-35
2024/01/26 03:39:50;;;;;;;1.90;1.80;;;;;;;;;;5031351;28;20234;-34
2024/01/26 03:42:18;;;;;;;2.13;1.90;;;;;;;;;;5048787;28;20206;-34
2024/01/26 03:44:45;;;;;;;2.10;2.00;;;;;;;;;;5041218;28;20259;-35
2024/01/26 03:47:12;;;;;;;2.20;2.00;;;;;;;;;;5041072;28;20293;-34
2024/01/26 03:49:45;;;;;;;2.07;1.97;;;;;;;;;;5043575;28;20229;-36
2024/01/26 03:52:13;;;;;;;2.77;2.00;;;;;;;;;;5036296;28;20237;-38
2024/01/26 03:54:40;;;;;;;2.17;2.00;;;;;;;;;;5029788;28;20211;-35
2024/01/26 03:57:07;;;;;;;2.17;1.97;;;;;;;;;;5037617;28;20225;-33
2024/01/26 03:59:34;;;;;;;1.70;1.60;;;;;;;;;;5028819;28;20277;-35
2024/01/26 04:02:01;;;;;;;2.43;1.73;;;;;;;;;;5029735;28;20203;-39
2024/01/26 04:04:29;;;;;;;2.17;1.80;;;;;;;;;;5036885;28;20206;-32
2024/01/26 04:06:57;;;;;;;2.80;2.17;;;;;;;;;;5049364;28;20206;-36
2024/01/26 04:09:24;;;;;;;1.73;1.63;;;;;;;;;;5041216;28;20327;-33
2024/01/26 04:11:52;;;;;;;1.80;1.70;;;;;;;;;;5037702;28;20198;-36
2024/01/26 04:14:19;;;;;;;3.80;1.73;;;;;;;;;;5033949;28;20201;-38
2024/01/26 04:16:46;;;;;;;1.80;1.70;;;;;;;;;;5044867;28;20205;-38
2024/01/26 04:19:13;;;;;;;2.20;2.00;;;;;;;;;;5036710;28;20218;-35
2024/01/26 04:21:40;;;;;;;2.10;1.70;;;;;;;;;;5033673;28;20612;-32
2024/01/26 04:24:09;;;;;;;2.60;1.80;;;;;;;;;;5034758;28;20206;-31
2024/01/26 04:26:36;;;;;;;1.70;1.60;;;;;;;;;;5035578;28;20225;-33
2024/01/26 04:29:07;;;;;;;1.47;1.37;;;;;;;;;;5041626;28;20206;-36
2024/01/26 04:31:34;;;;;;;2.57;1.90;;;;;;;;;;5047955;28;20214;-36
2024/01/26 04:34:01;;;;;;;1.80;1.70;;;;;;;;;;5027324;28;20221;-35
2024/01/26 04:36:28;;;;;;;1.87;1.77;;;;;;;;;;5040074;28;20241;-32
2024/01/26 04:38:59;;;;;;;2.00;1.90;;;;;;;;;;5025930;28;20230;-37
2024/01/26 04:41:27;;;;;;;1.70;1.60;;;;;;;;;;5029585;28;20230;-32
2024/01/26 04:43:55;;;;;;;1.53;1.40;;;;;;;;;;5032739;28;20285;-37
2024/01/26 04:46:22;;;;;;;1.47;1.37;;;;;;;;;;5040048;28;20207;-35
2024/01/26 04:48:49;;;;;;;2.07;1.87;;;;;;;;;;5039602;28;20219;-32
2024/01/26 04:51:17;;;;;;;2.77;1.70;;;;;;;;;;5048708;28;20232;-38
2024/01/26 04:53:44;;;;;;;2.00;1.90;;;;;;;;;;5041054;28;20209;-34
2024/01/26 04:56:11;;;;;;;1.83;1.53;;;;;;;;;;5043657;28;20300;-39
2024/01/26 04:58:40;;;;;;;3.23;1.70;;;;;;;;;;5047810;28;20210;-38
2024/01/26 05:01:07;;;;;;;2.03;1.90;;;;;;;;;;5048274;28;20244;-37
2024/01/26 05:03:34;;;;;;;2.17;1.80;;;;;;;;;;5030130;28;20213;-37
2024/01/26 05:06:03;;;;;;;1.67;1.57;;;;;;;;;;5033416;28;20236;-35
2024/01/26 05:08:31;;;;;;;2.30;1.90;;;;;;;;;;5039568;28;20292;-39
2024/01/26 05:10:58;;;;;;;1.87;1.77;;;;;;;;;;5033704;28;20214;-30
2024/01/26 05:13:25;;;;;;;1.43;1.33;;;;;;;;;;5032712;28;20242;-35
2024/01/26 05:15:54;;;;;;;2.10;1.90;;;;;;;;;;5036102;28;20256;-34
2024/01/26 05:18:21;;;;;;;2.10;1.90;;;;;;;;;;5028290;28;20213;-36
2024/01/26 05:20:48;;;;;;;1.73;1.63;;;;;;;;;;5027891;28;20231;-39
2024/01/26 05:23:15;;;;;;;2.23;2.03;;;;;;;;;;5040196;28;20308;-39
2024/01/26 05:25:45;;;;;;;2.10;1.90;;;;;;;;;;5042307;28;20206;-42
2024/01/26 05:28:12;;;;;;;2.23;2.03;;;;;;;;;;5033135;28;20657;-37
2024/01/26 05:30:39;;;;;;;1.47;1.37;;;;;;;;;;5031477;28;20222;-36
2024/01/26 05:33:09;;;;;;;1.33;1.20;;;;;;;;;;5037002;28;20206;-38
2024/01/26 05:35:36;;;;;;;1.30;1.20;;;;;;;;;;5041467;28;20209;-35
2024/01/26 05:38:03;;;;;;;2.73;1.70;;;;;;;;;;5044144;28;20214;-33
2024/01/26 05:40:30;;;;;;;2.90;1.80;;;;;;;;;;5035828;28;20254;-33
2024/01/26 05:42:57;;;;;;;1.63;1.53;;;;;;;;;;5031606;28;20220;-35
2024/01/26 05:45:25;;;;;;;1.53;1.43;;;;;;;;;;5039710;28;20210;-36
2024/01/26 05:47:52;;;;;;;1.67;1.50;;;;;;;;;;5036460;28;20615;-35
2024/01/26 05:50:21;;;;;;;1.50;1.40;;;;;;;;;;5022149;28;20230;-38
2024/01/26 05:52:49;;;;;;;1.40;1.30;;;;;;;;;;5032112;28;20217;-33
2024/01/26 05:55:16;;;;;;;1.80;1.50;;;;;;;;;;5023406;28;20210;-37
2024/01/26 05:57:44;;;;;;;1.27;1.17;;;;;;;;;;5029802;28;20218;-29
2024/01/26 06:00:11;;;;;;;1.07;1.07;;;;;;;;;;5043862;28;20230;-37
2024/01/26 06:02:38;;;;;;;1.60;1.20;;;;;;;;;;5030114;28;20241;-35
2024/01/26 06:05:06;;;;;;;1.33;1.20;;;;;;;;;;5033774;28;20224;-35
2024/01/26 06:07:35;;;;;;;1.63;1.17;;;;;;;;;;5035175;28;20224;-36
2024/01/26 06:10:02;;;;;;;1.13;0.90;;;;;;;;;;5038014;28;20233;-34
2024/01/26 06:12:29;;;;;;;1.20;1.10;;;;;;;;;;5039659;28;20238;-34
2024/01/26 06:14:56;;;;;;;3.00;1.50;;;;;;;;;;5041961;28;20213;-36
2024/01/26 06:17:23;;;;;;;2.10;1.03;;;;;;;;;;5037993;28;20213;-34
2024/01/26 06:19:51;;;;;;;1.20;1.10;;;;;;;;;;5044813;28;20232;-37
2024/01/26 06:22:19;;;;;;;2.43;1.10;;;;;;;;;;5044908;28;20271;-32
2024/01/26 06:24:55;;;;;;;2.13;1.33;;;;;;;;;;5037951;28;20210;-38
2024/01/26 06:27:27;;;;;;;1.53;1.10;;;;;;;;;;5043267;28;20293;-36
2024/01/26 06:30:16;;;;;;;0.93;0.80;;;;;;;;;;5046585;28;20252;-36
2024/01/26 06:32:49;;;;;;;1.00;0.90;;;;;;;;;;5045200;28;20214;-33
2024/01/26 06:35:20;;;;;;;1.80;0.83;;;;;;;;;;5041421;28;20205;-38
2024/01/26 06:37:57;;;;;;;2.13;0.80;;;;;;;;;;5044957;28;20260;-37
2024/01/26 06:40:41;;;;;;;2.23;0.87;;;;;;;;;;5044793;28;20259;-36
2024/01/26 06:43:21;;;;;;;1.63;1.00;;;;;;;;;;5043176;28;20245;-36
2024/01/26 06:45:50;;;;;;;0.87;0.87;;;;;;;;;;5042056;28;20210;-38
2024/01/26 06:48:45;;;;;;;1.13;1.03;;;;;;;;;;5039747;28;20216;-35
2024/01/26 06:51:35;;;;;;;1.97;1.30;;;;;;;;;;5038774;28;20218;-34
2024/01/26 06:57:06;;;;;;;;;;;;;;;;;;;;;
2024/01/26 06:59:38;;;;;;;1.67;0.77;;;;;;;;;;5041967;28;20222;-39
2024/01/26 07:02:05;;;;;;;1.23;0.83;;;;;;;;;;5042789;28;20289;-38
2024/01/26 07:04:43;;;;;;;1.17;1.00;;;;;;;;;;5046018;28;20295;-36
2024/01/26 07:07:10;;;;;;;1.90;1.20;;;;;;;;;;5046297;28;20226;-33
2024/01/26 07:09:38;;;;;;;2.07;1.40;;;;;;;;;;5033274;28;20256;-37
2024/01/26 07:12:10;;;;;;;3.67;1.27;;;;;;;;;;5034547;28;20218;-38
2024/01/26 07:14:37;;;;;;;1.40;1.30;;;;;;;;;;5042789;28;20292;-36
2024/01/26 07:19:55;;;;;;;1.73;1.20;;;;;;;;;;5029992;28;20663;-34
2024/01/26 07:22:23;;;;;;;1.63;0.97;;;;;;;;;;5044568;28;20218;-38
2024/01/26 07:27:39;;;;;;;0.83;0.83;;;;;;;;;;5032342;28;20241;-33
2024/01/26 07:30:10;;;;;;;1.00;0.80;;;;;;;;;;5035971;28;20222;-33
2024/01/26 07:32:37;;;;;;;0.97;0.80;;;;;;;;;;5050754;28;20313;-36
2024/01/26 07:35:04;;;;;;;1.33;1.00;;;;;;;;;;5034629;28;20238;-37
2024/01/26 07:37:32;;;;;;;0.90;0.90;;;;;;;;;;5040632;28;20245;-37
2024/01/26 07:40:00;;;;;;;3.03;1.00;;;;;;;;;;5039354;28;20230;-32
2024/01/26 07:42:28;;;;;;;0.93;0.93;;;;;;;;;;5038224;28;20260;-33
2024/01/26 07:44:58;;;;;;;1.17;1.07;;;;;;;;;;5048348;28;20209;-34
2024/01/26 07:47:27;;;;;;;1.70;0.73;;;;;;;;;;5042628;28;20209;-36
2024/01/26 07:49:54;;;;;;;0.70;0.70;;;;;;;;;;5039836;28;20222;-36
2024/01/26 07:52:23;;;;;;;0.90;0.70;;;;;;;;;;5039585;28;20212;-34
2024/01/26 07:54:54;;;;;;;1.37;0.90;;;;;;;;;;5034671;28;20264;-33
2024/01/26 07:57:23;;;;;;;0.60;0.60;;;;;;;;;;5051620;28;20213;-40
2024/01/26 07:59:50;;;;;;;1.07;0.73;;;;;;;;;;5043537;28;20221;-40
2024/01/26 08:02:19;;;;;;;0.53;0.53;;;;;;;;;;5045821;28;20263;-32
2024/01/26 08:04:46;;;;;;;1.23;0.80;;;;;;;;;;5046995;28;20206;-34
2024/01/26 08:07:15;;;;;;;1.13;0.80;;;;;;;;;;5048262;28;20212;-34
2024/01/26 08:09:43;;;;;;;1.40;1.10;;;;;;;;;;5041552;28;20321;-34
2024/01/26 08:12:11;;;;;;;1.77;0.90;;;;;;;;;;5040955;28;20211;-35
2024/01/26 08:14:38;;;;;;;0.80;0.80;;;;;;;;;;5043672;28;20206;-36
2024/01/26 08:17:05;;;;;;;0.67;0.67;;;;;;;;;;5049627;28;20215;-40
2024/01/26 08:19:35;;;;;;;1.17;0.83;;;;;;;;;;5039476;28;20222;-36
2024/01/26 08:22:03;;;;;;;2.53;0.97;;;;;;;;;;5039087;28;20279;-35
2024/01/26 08:24:31;;;;;;;0.70;0.60;;;;;;;;;;5029040;28;20207;-40
2024/01/26 08:26:58;;;;;;;1.07;1.00;;;;;;;;;;5036616;28;20214;-37
2024/01/26 08:29:26;;;;;;;2.00;0.87;;;;;;;;;;5028621;28;20333;-33
2024/01/26 08:31:54;;;;;;;0.77;0.77;;;;;;;;;;5034406;28;20198;-37
2024/01/26 08:34:26;;;;;;;0.73;0.73;;;;;;;;;;5044399;28;20202;-40
2024/01/26 08:36:55;;;;;;;0.73;0.73;;;;;;;;;;5037772;28;20221;-35
2024/01/26 08:39:22;;;;;;;3.23;0.73;;;;;;;;;;5027977;28;20213;-36
2024/01/26 08:41:55;;;;;;;0.87;0.87;;;;;;;;;;5030621;28;20261;-38
2024/01/26 08:44:22;;;;;;;1.60;0.80;;;;;;;;;;5042534;28;20213;-32
2024/01/26 08:46:50;;;;;;;1.07;0.90;;;;;;;;;;5034634;28;20218;-36
2024/01/26 08:49:17;;;;;;;0.80;0.80;;;;;;;;;;5041667;28;20225;-37
2024/01/26 08:51:47;;;;;;;0.77;0.77;;;;;;;;;;5047422;28;20206;-34
2024/01/26 08:54:21;;;;;;;0.80;0.80;;;;;;;;;;5035533;28;20203;-38
2024/01/26 08:56:48;;;;;;;1.37;0.90;;;;;;;;;;5034027;28;20559;-31
2024/01/26 08:59:17;;;;;;;2.10;0.90;;;;;;;;;;5043558;28;20218;-34
2024/01/26 09:01:44;;;;;;;2.00;0.90;;;;;;;;;;5034729;28;20272;-38
2024/01/26 09:04:11;;;;;;;0.60;0.60;;;;;;;;;;5036529;28;20206;-37
2024/01/26 09:06:39;;;;;;;0.70;0.70;;;;;;;;;;5040740;28;20213;-36
2024/01/26 09:09:06;;;;;;;1.10;1.00;;;;;;;;;;5039567;28;20202;-33
2024/01/26 09:11:35;;;;;;;2.23;1.10;;;;;;;;;;5040002;28;20302;-36
2024/01/26 09:14:02;;;;;;;0.73;0.73;;;;;;;;;;5042822;28;20209;-32
2024/01/26 09:16:29;;;;;;;1.40;0.87;;;;;;;;;;5039471;28;20490;-36
2024/01/26 09:18:57;;;;;;;1.70;0.90;;;;;;;;;;5034140;28;20238;-32
2024/01/26 09:21:24;;;;;;;0.70;0.70;;;;;;;;;;5042687;28;20237;-36
2024/01/26 09:23:51;;;;;;;2.00;0.80;;;;;;;;;;5036186;28;20267;-35
2024/01/26 09:26:19;;;;;;;1.73;0.80;;;;;;;;;;5045488;28;20206;-40
2024/01/26 09:28:47;;;;;;;0.97;0.87;;;;;;;;;;5050589;28;20209;-33
2024/01/26 09:31:14;;;;;;;1.63;0.67;;;;;;;;;;5047902;28;20242;-35
2024/01/26 09:33:42;;;;;;;2.13;0.90;;;;;;;;;;5039219;28;20289;-29
2024/01/26 09:36:10;;;;;;;0.87;0.80;;;;;;;;;;5040619;28;20208;-34
2024/01/26 09:38:39;;;;;;;1.57;0.90;;;;;;;;;;5038596;28;20207;-32
2024/01/26 09:41:07;;;;;;;0.70;0.70;;;;;;;;;;5044234;28;20226;-36
2024/01/26 09:43:34;;;;;;;0.93;0.93;;;;;;;;;;5034966;28;20270;-34
2024/01/26 09:46:04;;;;;;;0.97;0.93;;;;;;;;;;5044227;28;20222;-32
2024/01/26 09:48:33;;;;;;;1.07;0.77;;;;;;;;;;5043425;28;20229;-37
2024/01/26 09:51:01;;;;;;;1.70;0.90;;;;;;;;;;5039846;28;20265;-34
2024/01/26 09:53:29;;;;;;;1.17;1.00;;;;;;;;;;5046658;28;20208;-36
2024/01/26 09:55:56;;;;;;;1.47;0.90;;;;;;;;;;5038195;28;20209;-32
2024/01/26 09:58:23;;;;;;;1.30;1.00;;;;;;;;;;5050262;28;20282;-37
2024/01/26 10:00:52;;;;;;;0.77;0.77;;;;;;;;;;5051141;28;20237;-32
2024/01/26 10:03:23;;;;;;;0.80;0.80;;;;;;;;;;5045174;28;20265;-33
2024/01/26 10:05:51;;;;;;;1.17;1.07;;;;;;;;;;5046347;28;20230;-35
2024/01/26 10:08:18;;;;;;;0.93;0.93;;;;;;;;;;5038258;28;20202;-30
2024/01/26 10:10:46;;;;;;;1.07;1.00;;;;;;;;;;5036440;28;20218;-32
2024/01/26 10:13:13;;;;;;;1.70;0.80;;;;;;;;;;5051259;28;20794;-36
2024/01/26 10:15:43;;;;;;;2.50;0.93;;;;;;;;;;5049247;28;20293;-36
2024/01/26 10:18:10;;;;;;;2.10;1.00;;;;;;;;;;5037011;28;20233;-36
2024/01/26 10:20:46;;;;;;;0.90;0.90;;;;;;;;;;5039714;28;20227;-33
2024/01/26 10:26:16;;;;;;;1.73;1.13;;;;;;;;;;5017726;28;20201;-35
2024/01/26 10:28:46;;;;;;;0.80;0.80;;;;;;;;;;5045955;28;20255;-38
2024/01/26 10:31:21;;;;;;;4.40;2.07;;;;;;;;;;5034667;28;20231;-38
2024/01/26 10:33:54;;;;;;;1.30;0.87;;;;;;;;;;5034107;28;20198;-33
2024/01/26 10:39:17;;;;;;;0.80;0.80;;;;;;;;;;5033760;28;20276;-36
2024/01/26 10:41:48;;;;;;;2.43;1.03;;;;;;;;;;5049796;28;20309;-33
2024/01/26 10:44:22;;;;;;;1.73;0.90;;;;;;;;;;5042782;28;20207;-37
2024/01/26 10:47:17;;;;;;;1.20;1.10;;;;;;;;;;5048420;28;20210;-33
2024/01/26 10:49:48;;;;;;;1.53;1.40;;;;;;;;;;5048238;28;20230;-35
2024/01/26 10:52:34;;;;;;;1.73;1.03;;;;;;;;;;5035666;28;20206;-33
2024/01/26 10:58:40;;;;;;;1.07;0.90;;;;;;;;;;5035109;28;20210;-31
2024/01/26 11:01:35;;;;;;;2.30;1.37;;;;;;;;;;5004419;28;20230;-37
2024/01/26 11:09:56;;;;;;;1.90;1.00;;;;;;;;;;4904992;29;20234;-35
2024/01/26 11:13:05;;;;;;;1.70;1.40;;;;;;;;;;5040235;28;20291;-38
2024/01/26 11:15:50;;;;;;;1.30;1.20;;;;;;;;;;5012547;28;20206;-34
2024/01/26 11:18:26;;;;;;;2.37;1.33;;;;;;;;;;5031577;28;20225;-33
2024/01/26 11:26:41;;;;;;;2.10;1.20;;;;;;;;;;5030167;28;20218;-38
2024/01/26 11:29:19;;;;;;;1.73;1.50;;;;;;;;;;5042014;28;20224;-39
2024/01/26 11:35:06;;;;;;;1.90;1.47;;;;;;;;;;5032138;28;20214;-32
2024/01/26 11:40:55;;;;;;;1.20;1.10;;;;;;;;;;5005149;28;20229;-35
2024/01/26 11:43:32;;;;;;;2.17;1.27;;;;;;;;;;5043046;28;20199;-37
2024/01/26 11:46:20;;;;;;;1.40;1.30;;;;;;;;;;5039485;28;20672;-36
2024/01/26 11:49:18;;;;;;;;;;;;;;;;;;;;;
2024/01/26 11:52:12;;;;;;;1.20;1.10;;;;;;;;;;5031214;28;20203;-36
2024/01/26 11:55:05;;;;;;;;;;;;;;;;;;;;;
2024/01/26 12:04:17;;;;;;;1.80;1.63;;;;;;;;;;5039129;28;20217;-35
2024/01/26 12:06:57;;;;;;;1.00;0.90;;;;;;;;;;5020892;28;20206;-33
2024/01/26 12:09:52;;;;;;;1.73;1.07;;;;;;;;;;5041362;28;20201;-37
2024/01/26 12:16:07;;;;;;;26.03;16.27;;;;;;;;;;4993673;28;20243;-31
2024/01/26 12:18:42;;;;;;;5.10;4.60;;;;;;;;;;4941947;28;20220;-35
2024/01/26 12:21:10;;;;;;;1.67;1.47;;;;;;;;;;5027107;28;20249;-33
2024/01/26 12:23:41;;;;;;;1.47;1.37;;;;;;;;;;5034896;28;20210;-35
2024/01/26 12:26:10;;;;;;;3.20;1.40;;;;;;;;;;5041374;28;20205;-34
2024/01/26 12:28:37;;;;;;;1.10;1.10;;;;;;;;;;5041823;28;20206;-30
2024/01/26 12:31:05;;;;;;;1.67;1.47;;;;;;;;;;5034229;28;20238;-33
2024/01/26 12:33:46;;;;;;;1.00;1.00;;;;;;;;;;5047062;28;20270;-36
2024/01/26 12:36:17;;;;;;;2.27;1.30;;;;;;;;;;5043076;28;20284;-35
2024/01/26 12:38:51;;;;;;;1.50;1.40;;;;;;;;;;5046732;28;20207;-32
2024/01/26 12:41:18;;;;;;;1.90;1.10;;;;;;;;;;5037454;28;20308;-38
2024/01/26 12:43:45;;;;;;;1.40;1.17;;;;;;;;;;5040999;28;20266;-30
2024/01/26 12:46:15;;;;;;;1.07;1.07;;;;;;;;;;5048019;28;20256;-35
2024/01/26 12:48:44;;;;;;;2.80;1.27;;;;;;;;;;5037726;28;20241;-36
2024/01/26 12:51:18;;;;;;;1.73;1.40;;;;;;;;;;5039551;28;20317;-33
2024/01/26 12:53:46;;;;;;;1.10;1.00;;;;;;;;;;5030558;28;20197;-32
2024/01/26 12:56:27;;;;;;;1.30;1.20;;;;;;;;;;5046559;28;20204;-35
2024/01/26 12:58:55;;;;;;;1.20;1.10;;;;;;;;;;5037156;28;20305;-34
2024/01/26 13:01:22;;;;;;;1.10;1.10;;;;;;;;;;5042934;28;20301;-36
2024/01/26 13:03:57;;;;;;;1.30;1.20;;;;;;;;;;5046069;28;20212;-32
2024/01/26 13:06:25;;;;;;;1.10;1.10;;;;;;;;;;5041018;28;20260;-37
2024/01/26 13:08:53;;;;;;;2.33;1.10;;;;;;;;;;5035171;28;20202;-35
2024/01/26 13:11:20;;;;;;;1.03;0.93;;;;;;;;;;5045172;28;20218;-40
2024/01/26 13:13:47;;;;;;;1.17;1.00;;;;;;;;;;5051232;28;20270;-36
2024/01/26 13:16:15;;;;;;;1.30;1.20;;;;;;;;;;5050149;28;20251;-39
2024/01/26 13:18:45;;;;;;;2.20;0.90;;;;;;;;;;5042524;28;20197;-35
2024/01/26 13:21:14;;;;;;;3.20;1.17;;;;;;;;;;5052069;28;20221;-29
2024/01/26 13:23:41;;;;;;;1.17;1.07;;;;;;;;;;5046398;28;20219;-37
2024/01/26 13:26:09;;;;;;;1.23;0.93;;;;;;;;;;5039194;28;20213;-34
2024/01/26 13:28:37;;;;;;;1.57;1.30;;;;;;;;;;5053144;28;20278;-33
2024/01/26 13:31:12;;;;;;;0.90;0.83;;;;;;;;;;5045401;28;20312;-32
2024/01/26 13:33:40;;;;;;;1.30;1.03;;;;;;;;;;5045826;28;20197;-33
2024/01/26 13:36:07;;;;;;;1.40;1.30;;;;;;;;;;5047939;28;20233;-36
2024/01/26 13:38:41;;;;;;;1.27;1.17;;;;;;;;;;5034930;28;20238;-35
2024/01/26 13:41:09;;;;;;;0.57;0.57;;;;;;;;;;5045480;28;20219;-33
2024/01/26 13:43:40;;;;;;;0.90;0.90;;;;;;;;;;5046608;28;20246;-35
2024/01/26 13:46:08;;;;;;;0.90;0.90;;;;;;;;;;5039290;28;20199;-30
2024/01/26 13:48:36;;;;;;;1.03;1.03;;;;;;;;;;5042068;28;20208;-35
2024/01/26 13:51:04;;;;;;;1.00;1.00;;;;;;;;;;5047205;28;20233;-34
2024/01/26 13:53:32;;;;;;;1.43;1.30;;;;;;;;;;5046868;28;20213;-37
2024/01/26 13:56:00;;;;;;;1.10;1.10;;;;;;;;;;5036286;28;20239;-31
2024/01/26 13:58:27;;;;;;;1.20;1.10;;;;;;;;;;5044020;28;20217;-33
2024/01/26 14:00:54;;;;;;;1.23;1.10;;;;;;;;;;5049038;28;20250;-35
2024/01/26 14:03:22;;;;;;;1.10;1.00;;;;;;;;;;5044186;28;20313;-34
2024/01/26 14:05:49;;;;;;;1.20;1.10;;;;;;;;;;5039125;28;20211;-33
2024/01/26 14:08:16;;;;;;;0.90;0.90;;;;;;;;;;5034041;28;20213;-35
2024/01/26 14:10:43;;;;;;;1.20;1.10;;;;;;;;;;5039765;28;20221;-39
2024/01/26 14:13:14;;;;;;;1.80;1.17;;;;;;;;;;5040611;28;20292;-34
2024/01/26 14:15:41;;;;;;;1.90;1.07;;;;;;;;;;5052610;28;20293;-33
2024/01/26 14:18:09;;;;;;;2.13;1.03;;;;;;;;;;5044373;28;20205;-35
2024/01/26 14:20:36;;;;;;;2.03;1.33;;;;;;;;;;5043715;28;20227;-36
2024/01/26 14:23:04;;;;;;;1.43;1.20;;;;;;;;;;5050785;28;20233;-34
2024/01/26 14:25:31;;;;;;;1.13;1.03;;;;;;;;;;5038090;28;20328;-37
2024/01/26 14:28:03;;;;;;;1.40;1.03;;;;;;;;;;5038879;28;20218;-36
2024/01/26 14:30:32;;;;;;;1.17;1.17;;;;;;;;;;5046700;28;20234;-33
2024/01/26 14:33:02;;;;;;;3.13;1.50;;;;;;;;;;5043679;28;20206;-34
2024/01/26 14:35:29;;;;;;;2.30;1.30;;;;;;;;;;5045675;28;20199;-33
2024/01/26 14:38:03;;;;;;;1.23;1.13;;;;;;;;;;5052542;28;20234;-36
2024/01/26 14:40:31;;;;;;;1.60;1.07;;;;;;;;;;5040339;28;20230;-33
2024/01/26 14:42:58;;;;;;;4.50;1.23;;;;;;;;;;5042825;28;20245;-39
2024/01/26 14:45:25;;;;;;;1.37;1.20;;;;;;;;;;5049490;28;20285;-32
2024/01/26 14:47:54;;;;;;;1.67;1.20;;;;;;;;;;5042789;28;20203;-36
2024/01/26 14:50:21;;;;;;;1.40;1.30;;;;;;;;;;5043138;28;20248;-36
2024/01/26 14:52:48;;;;;;;1.17;1.00;;;;;;;;;;5037839;28;20210;-33
2024/01/26 14:55:16;;;;;;;1.23;1.00;;;;;;;;;;5037310;28;20210;-38
2024/01/26 14:57:45;;;;;;;1.83;1.63;;;;;;;;;;5047235;28;20249;-30
2024/01/26 15:00:15;;;;;;;1.73;1.50;;;;;;;;;;5044373;28;20225;-32
2024/01/26 15:02:44;;;;;;;1.50;1.40;;;;;;;;;;5046652;28;20218;-40
2024/01/26 15:05:12;;;;;;;3.47;2.00;;;;;;;;;;5045185;28;20202;-31
2024/01/26 15:07:40;;;;;;;2.97;2.27;;;;;;;;;;5049843;28;20244;-34
2024/01/26 15:10:08;;;;;;;1.33;1.23;;;;;;;;;;5045260;28;20232;-34
2024/01/26 15:12:35;;;;;;;1.60;1.50;;;;;;;;;;5036558;28;20217;-30
2024/01/26 15:15:02;;;;;;;5.53;2.53;;;;;;;;;;5046198;28;20202;-34
2024/01/26 15:17:30;;;;;;;2.27;1.80;;;;;;;;;;5035590;28;20617;-31
2024/01/26 15:19:59;;;;;;;3.00;1.57;;;;;;;;;;5046423;28;20226;-33
2024/01/26 15:22:27;;;;;;;1.70;1.60;;;;;;;;;;5049174;28;20221;-31
2024/01/26 15:24:56;;;;;;;1.83;1.50;;;;;;;;;;5041870;28;20292;-31
2024/01/26 15:27:25;;;;;;;7.23;2.00;;;;;;;;;;5048629;28;20617;-36
2024/01/26 15:29:52;;;;;;;5.97;1.80;;;;;;;;;;5046055;28;20328;-36
2024/01/26 15:32:19;;;;;;;4.63;1.67;;;;;;;;;;5048226;28;20202;-34
2024/01/26 15:34:46;;;;;;;2.93;1.73;;;;;;;;;;5048305;28;20199;-35
2024/01/26 15:37:15;;;;;;;2.77;1.63;;;;;;;;;;5050211;28;20280;-36
2024/01/26 15:39:44;;;;;;;1.97;1.83;;;;;;;;;;5042387;28;20258;-32
2024/01/26 15:42:11;;;;;;;1.97;1.60;;;;;;;;;;5045082;28;20206;-35
2024/01/26 15:44:40;;;;;;;2.83;1.50;;;;;;;;;;5048581;28;20208;-33